sensor_id;sensor_type;location;lat;lon;timestamp;P1;durP1;ratioP1;P2;durP2;ratioP2
1715;SDS011;855;48.824;9.220;2022-08-01T00:02:05;8.93;;;2.70;;
1715;SDS011;855;48.824;9.220;2022-08-01T00:04:32;7.63;;;2.97;;
1715;SDS011;855;48.824;9.220;2022-08-01T00:06:59;3.73;;;3.00;;
1715;SDS011;855;48.824;9.220;2022-08-01T00:09:26;6.63;;;3.17;;
1715;SDS011;855;48.824;9.220;2022-08-01T00:11:52;3.60;;;2.30;;
1715;SDS011;855;48.824;9.220;2022-08-01T00:14:19;9.77;;;4.50;;
1715;SDS011;855;48.824;9.220;2022-08-01T00:16:46;6.07;;;3.47;;
1715;SDS011;855;48.824;9.220;2022-08-01T00:19:14;4.67;;;3.17;;
1715;SDS011;855;48.824;9.220;2022-08-01T00:21:41;17.50;;;4.30;;
1715;SDS011;855;48.824;9.220;2022-08-01T00:24:08;12.37;;;4.40;;
1715;SDS011;855;48.824;9.220;2022-08-01T00:26:35;4.40;;;3.00;;
1715;SDS011;855;48.824;9.220;2022-08-01T00:29:02;9.33;;;4.70;;
1715;SDS011;855;48.824;9.220;2022-08-01T00:31:29;12.20;;;4.10;;
1715;SDS011;855;48.824;9.220;2022-08-01T00:33:56;11.50;;;5.13;;
1715;SDS011;855;48.824;9.220;2022-08-01T00:36:24;11.23;;;4.93;;
1715;SDS011;855;48.824;9.220;2022-08-01T00:38:51;15.37;;;5.10;;
1715;SDS011;855;48.824;9.220;2022-08-01T00:41:18;7.83;;;4.17;;
1715;SDS011;855;48.824;9.220;2022-08-01T00:43:44;8.80;;;4.37;;
1715;SDS011;855;48.824;9.220;2022-08-01T00:46:11;20.87;;;9.43;;
1715;SDS011;855;48.824;9.220;2022-08-01T00:48:38;15.53;;;6.03;;
1715;SDS011;855;48.824;9.220;2022-08-01T00:51:05;16.97;;;7.10;;
1715;SDS011;855;48.824;9.220;2022-08-01T00:53:34;13.53;;;5.70;;
1715;SDS011;855;48.824;9.220;2022-08-01T00:56:01;34.67;;;12.23;;
1715;SDS011;855;48.824;9.220;2022-08-01T00:58:28;22.77;;;8.27;;
1715;SDS011;855;48.824;9.220;2022-08-01T01:00:57;13.43;;;5.10;;
1715;SDS011;855;48.824;9.220;2022-08-01T01:03:24;20.80;;;7.77;;
1715;SDS011;855;48.824;9.220;2022-08-01T01:06:09;14.93;;;6.77;;
1715;SDS011;855;48.824;9.220;2022-08-01T01:08:49;14.43;;;7.10;;
1715;SDS011;855;48.824;9.220;2022-08-01T01:11:21;20.17;;;6.80;;
1715;SDS011;855;48.824;9.220;2022-08-01T01:13:52;17.57;;;7.57;;
1715;SDS011;855;48.824;9.220;2022-08-01T01:16:23;18.10;;;7.53;;
1715;SDS011;855;48.824;9.220;2022-08-01T01:18:52;9.90;;;4.30;;
1715;SDS011;855;48.824;9.220;2022-08-01T01:24:26;12.80;;;5.93;;
1715;SDS011;855;48.824;9.220;2022-08-01T01:27:06;14.80;;;5.83;;
1715;SDS011;855;48.824;9.220;2022-08-01T01:29:46;12.63;;;5.67;;
1715;SDS011;855;48.824;9.220;2022-08-01T01:32:17;12.60;;;7.00;;
1715;SDS011;855;48.824;9.220;2022-08-01T01:34:46;6.00;;;3.10;;
1715;SDS011;855;48.824;9.220;2022-08-01T01:37:17;6.80;;;4.10;;
1715;SDS011;855;48.824;9.220;2022-08-01T01:39:46;13.63;;;4.63;;
1715;SDS011;855;48.824;9.220;2022-08-01T01:42:15;5.90;;;3.90;;
1715;SDS011;855;48.824;9.220;2022-08-01T01:44:43;5.67;;;3.20;;
1715;SDS011;855;48.824;9.220;2022-08-01T01:47:12;4.80;;;3.53;;
1715;SDS011;855;48.824;9.220;2022-08-01T01:49:41;4.90;;;3.30;;
1715;SDS011;855;48.824;9.220;2022-08-01T01:52:10;9.50;;;2.97;;
1715;SDS011;855;48.824;9.220;2022-08-01T01:54:40;8.97;;;2.30;;
1715;SDS011;855;48.824;9.220;2022-08-01T01:57:10;11.53;;;4.33;;
1715;SDS011;855;48.824;9.220;2022-08-01T01:59:38;4.63;;;2.93;;
1715;SDS011;855;48.824;9.220;2022-08-01T02:02:08;3.40;;;2.70;;
1715;SDS011;855;48.824;9.220;2022-08-01T02:04:37;8.73;;;3.30;;
1715;SDS011;855;48.824;9.220;2022-08-01T02:07:08;4.10;;;3.00;;
1715;SDS011;855;48.824;9.220;2022-08-01T02:09:37;4.50;;;3.47;;
1715;SDS011;855;48.824;9.220;2022-08-01T02:12:06;4.80;;;3.23;;
1715;SDS011;855;48.824;9.220;2022-08-01T02:14:36;6.17;;;3.20;;
1715;SDS011;855;48.824;9.220;2022-08-01T02:17:05;5.70;;;3.30;;
1715;SDS011;855;48.824;9.220;2022-08-01T02:19:33;3.93;;;3.13;;
1715;SDS011;855;48.824;9.220;2022-08-01T02:22:01;5.03;;;3.03;;
1715;SDS011;855;48.824;9.220;2022-08-01T02:24:34;3.67;;;2.40;;
1715;SDS011;855;48.824;9.220;2022-08-01T02:27:05;4.50;;;3.20;;
1715;SDS011;855;48.824;9.220;2022-08-01T02:29:36;3.90;;;2.53;;
1715;SDS011;855;48.824;9.220;2022-08-01T02:32:07;7.70;;;2.50;;
1715;SDS011;855;48.824;9.220;2022-08-01T02:34:37;5.03;;;2.93;;
1715;SDS011;855;48.824;9.220;2022-08-01T02:37:06;6.73;;;3.57;;
1715;SDS011;855;48.824;9.220;2022-08-01T02:39:34;6.43;;;3.10;;
1715;SDS011;855;48.824;9.220;2022-08-01T02:42:04;8.63;;;3.10;;
1715;SDS011;855;48.824;9.220;2022-08-01T02:44:35;5.57;;;3.30;;
1715;SDS011;855;48.824;9.220;2022-08-01T02:47:04;5.67;;;2.67;;
1715;SDS011;855;48.824;9.220;2022-08-01T02:49:33;5.93;;;3.37;;
1715;SDS011;855;48.824;9.220;2022-08-01T02:52:06;4.87;;;3.00;;
1715;SDS011;855;48.824;9.220;2022-08-01T02:54:36;4.37;;;2.60;;
1715;SDS011;855;48.824;9.220;2022-08-01T02:57:05;5.83;;;3.27;;
1715;SDS011;855;48.824;9.220;2022-08-01T02:59:35;4.07;;;3.30;;
1715;SDS011;855;48.824;9.220;2022-08-01T03:02:04;7.63;;;3.47;;
1715;SDS011;855;48.824;9.220;2022-08-01T03:04:33;9.37;;;3.10;;
1715;SDS011;855;48.824;9.220;2022-08-01T03:07:03;5.10;;;3.20;;
1715;SDS011;855;48.824;9.220;2022-08-01T03:09:32;3.93;;;2.60;;
1715;SDS011;855;48.824;9.220;2022-08-01T03:12:07;6.80;;;3.67;;
1715;SDS011;855;48.824;9.220;2022-08-01T03:14:38;6.00;;;3.00;;
1715;SDS011;855;48.824;9.220;2022-08-01T03:17:06;4.30;;;3.00;;
1715;SDS011;855;48.824;9.220;2022-08-01T03:19:34;4.57;;;2.83;;
1715;SDS011;855;48.824;9.220;2022-08-01T03:22:04;4.83;;;3.30;;
1715;SDS011;855;48.824;9.220;2022-08-01T03:24:33;5.70;;;3.60;;
1715;SDS011;855;48.824;9.220;2022-08-01T03:27:02;3.33;;;2.30;;
1715;SDS011;855;48.824;9.220;2022-08-01T03:29:30;4.63;;;2.70;;
1715;SDS011;855;48.824;9.220;2022-08-01T03:31:59;4.90;;;3.30;;
1715;SDS011;855;48.824;9.220;2022-08-01T03:34:27;3.10;;;2.90;;
1715;SDS011;855;48.824;9.220;2022-08-01T03:36:55;4.83;;;3.00;;
1715;SDS011;855;48.824;9.220;2022-08-01T03:39:30;6.73;;;4.10;;
1715;SDS011;855;48.824;9.220;2022-08-01T03:42:01;4.63;;;2.57;;
1715;SDS011;855;48.824;9.220;2022-08-01T03:44:35;3.17;;;2.60;;
1715;SDS011;855;48.824;9.220;2022-08-01T03:47:07;3.50;;;2.50;;
1715;SDS011;855;48.824;9.220;2022-08-01T03:49:38;4.37;;;2.60;;
1715;SDS011;855;48.824;9.220;2022-08-01T03:52:07;6.10;;;3.43;;
1715;SDS011;855;48.824;9.220;2022-08-01T03:54:37;8.63;;;3.40;;
1715;SDS011;855;48.824;9.220;2022-08-01T03:57:07;5.30;;;3.23;;
1715;SDS011;855;48.824;9.220;2022-08-01T03:59:36;3.30;;;2.83;;
1715;SDS011;855;48.824;9.220;2022-08-01T04:02:04;3.83;;;2.93;;
1715;SDS011;855;48.824;9.220;2022-08-01T04:04:32;2.50;;;2.00;;
1715;SDS011;855;48.824;9.220;2022-08-01T04:06:59;5.37;;;3.33;;
1715;SDS011;855;48.824;9.220;2022-08-01T04:09:31;4.63;;;2.60;;
1715;SDS011;855;48.824;9.220;2022-08-01T04:12:00;4.53;;;2.33;;
1715;SDS011;855;48.824;9.220;2022-08-01T04:14:27;6.30;;;2.70;;
1715;SDS011;855;48.824;9.220;2022-08-01T04:16:54;4.87;;;2.90;;
1715;SDS011;855;48.824;9.220;2022-08-01T04:19:21;4.03;;;3.13;;
1715;SDS011;855;48.824;9.220;2022-08-01T04:21:48;4.53;;;3.30;;
1715;SDS011;855;48.824;9.220;2022-08-01T04:24:16;4.20;;;2.30;;
1715;SDS011;855;48.824;9.220;2022-08-01T04:26:45;5.20;;;2.77;;
1715;SDS011;855;48.824;9.220;2022-08-01T04:29:15;5.07;;;3.20;;
1715;SDS011;855;48.824;9.220;2022-08-01T04:31:44;5.50;;;3.10;;
1715;SDS011;855;48.824;9.220;2022-08-01T04:34:13;5.73;;;2.70;;
1715;SDS011;855;48.824;9.220;2022-08-01T04:36:46;4.40;;;2.60;;
1715;SDS011;855;48.824;9.220;2022-08-01T04:39:14;6.00;;;2.40;;
1715;SDS011;855;48.824;9.220;2022-08-01T04:41:45;6.40;;;2.43;;
1715;SDS011;855;48.824;9.220;2022-08-01T04:44:13;3.70;;;2.67;;
1715;SDS011;855;48.824;9.220;2022-08-01T04:46:41;3.63;;;2.20;;
1715;SDS011;855;48.824;9.220;2022-08-01T04:49:10;5.67;;;2.63;;
1715;SDS011;855;48.824;9.220;2022-08-01T04:51:49;5.60;;;2.20;;
1715;SDS011;855;48.824;9.220;2022-08-01T04:54:17;3.60;;;2.30;;
1715;SDS011;855;48.824;9.220;2022-08-01T04:56:44;5.50;;;2.60;;
1715;SDS011;855;48.824;9.220;2022-08-01T04:59:11;3.00;;;2.50;;
1715;SDS011;855;48.824;9.220;2022-08-01T05:01:56;2.67;;;2.10;;
1715;SDS011;855;48.824;9.220;2022-08-01T05:04:23;3.13;;;1.83;;
1715;SDS011;855;48.824;9.220;2022-08-01T05:06:50;5.43;;;2.20;;
1715;SDS011;855;48.824;9.220;2022-08-01T05:09:17;2.33;;;1.70;;
1715;SDS011;855;48.824;9.220;2022-08-01T05:11:43;3.53;;;1.93;;
1715;SDS011;855;48.824;9.220;2022-08-01T05:14:10;5.57;;;2.07;;
1715;SDS011;855;48.824;9.220;2022-08-01T05:16:37;6.80;;;2.77;;
1715;SDS011;855;48.824;9.220;2022-08-01T05:19:05;6.87;;;2.47;;
1715;SDS011;855;48.824;9.220;2022-08-01T05:21:33;2.23;;;2.03;;
1715;SDS011;855;48.824;9.220;2022-08-01T05:24:00;3.43;;;2.23;;
1715;SDS011;855;48.824;9.220;2022-08-01T05:26:27;6.10;;;2.67;;
1715;SDS011;855;48.824;9.220;2022-08-01T05:28:54;4.00;;;2.00;;
1715;SDS011;855;48.824;9.220;2022-08-01T05:31:21;3.30;;;2.17;;
1715;SDS011;855;48.824;9.220;2022-08-01T05:33:48;5.20;;;2.03;;
1715;SDS011;855;48.824;9.220;2022-08-01T05:36:16;6.93;;;2.17;;
1715;SDS011;855;48.824;9.220;2022-08-01T05:38:43;3.27;;;1.83;;
1715;SDS011;855;48.824;9.220;2022-08-01T05:41:10;3.87;;;1.77;;
1715;SDS011;855;48.824;9.220;2022-08-01T05:43:37;3.47;;;1.90;;
1715;SDS011;855;48.824;9.220;2022-08-01T05:46:03;4.63;;;2.30;;
1715;SDS011;855;48.824;9.220;2022-08-01T05:48:30;3.57;;;1.90;;
1715;SDS011;855;48.824;9.220;2022-08-01T05:50:57;2.60;;;2.20;;
1715;SDS011;855;48.824;9.220;2022-08-01T05:53:25;3.07;;;2.20;;
1715;SDS011;855;48.824;9.220;2022-08-01T05:55:52;7.97;;;3.27;;
1715;SDS011;855;48.824;9.220;2022-08-01T05:58:19;2.90;;;1.77;;
1715;SDS011;855;48.824;9.220;2022-08-01T06:00:46;5.57;;;1.87;;
1715;SDS011;855;48.824;9.220;2022-08-01T06:03:13;4.50;;;1.97;;
1715;SDS011;855;48.824;9.220;2022-08-01T06:05:40;3.93;;;2.07;;
1715;SDS011;855;48.824;9.220;2022-08-01T06:08:07;6.23;;;2.33;;
1715;SDS011;855;48.824;9.220;2022-08-01T06:10:35;4.17;;;1.50;;
1715;SDS011;855;48.824;9.220;2022-08-01T06:13:02;2.50;;;2.30;;
1715;SDS011;855;48.824;9.220;2022-08-01T06:15:29;5.10;;;2.43;;
1715;SDS011;855;48.824;9.220;2022-08-01T06:17:55;3.20;;;1.50;;
1715;SDS011;855;48.824;9.220;2022-08-01T06:20:22;4.47;;;1.90;;
1715;SDS011;855;48.824;9.220;2022-08-01T06:22:49;3.17;;;2.00;;
1715;SDS011;855;48.824;9.220;2022-08-01T06:25:16;3.73;;;1.90;;
1715;SDS011;855;48.824;9.220;2022-08-01T06:27:45;1.83;;;1.77;;
1715;SDS011;855;48.824;9.220;2022-08-01T06:30:12;5.10;;;1.63;;
1715;SDS011;855;48.824;9.220;2022-08-01T06:32:39;1.97;;;1.40;;
1715;SDS011;855;48.824;9.220;2022-08-01T06:35:06;4.50;;;1.20;;
1715;SDS011;855;48.824;9.220;2022-08-01T06:37:33;2.67;;;1.70;;
1715;SDS011;855;48.824;9.220;2022-08-01T06:40:00;1.70;;;1.40;;
1715;SDS011;855;48.824;9.220;2022-08-01T06:42:28;2.10;;;1.57;;
1715;SDS011;855;48.824;9.220;2022-08-01T06:44:57;2.13;;;1.50;;
1715;SDS011;855;48.824;9.220;2022-08-01T06:47:24;6.53;;;1.13;;
1715;SDS011;855;48.824;9.220;2022-08-01T06:49:51;3.87;;;1.43;;
1715;SDS011;855;48.824;9.220;2022-08-01T06:52:18;9.13;;;1.50;;
1715;SDS011;855;48.824;9.220;2022-08-01T06:54:45;1.70;;;1.47;;
1715;SDS011;855;48.824;9.220;2022-08-01T06:57:12;1.70;;;1.43;;
1715;SDS011;855;48.824;9.220;2022-08-01T06:59:39;4.20;;;1.30;;
1715;SDS011;855;48.824;9.220;2022-08-01T07:02:07;5.50;;;1.30;;
1715;SDS011;855;48.824;9.220;2022-08-01T07:04:35;2.33;;;1.60;;
1715;SDS011;855;48.824;9.220;2022-08-01T07:07:02;1.77;;;1.40;;
1715;SDS011;855;48.824;9.220;2022-08-01T07:09:29;1.80;;;1.63;;
1715;SDS011;855;48.824;9.220;2022-08-01T07:11:56;3.23;;;1.30;;
1715;SDS011;855;48.824;9.220;2022-08-01T07:14:23;2.20;;;1.17;;
1715;SDS011;855;48.824;9.220;2022-08-01T07:16:50;3.50;;;1.60;;
1715;SDS011;855;48.824;9.220;2022-08-01T07:19:18;3.57;;;1.50;;
1715;SDS011;855;48.824;9.220;2022-08-01T07:21:45;1.73;;;1.40;;
1715;SDS011;855;48.824;9.220;2022-08-01T07:24:13;2.33;;;1.80;;
1715;SDS011;855;48.824;9.220;2022-08-01T07:26:40;3.23;;;1.50;;
1715;SDS011;855;48.824;9.220;2022-08-01T07:29:08;4.17;;;1.70;;
1715;SDS011;855;48.824;9.220;2022-08-01T07:31:35;1.80;;;1.10;;
1715;SDS011;855;48.824;9.220;2022-08-01T07:34:02;2.30;;;1.70;;
1715;SDS011;855;48.824;9.220;2022-08-01T07:36:30;2.30;;;1.13;;
1715;SDS011;855;48.824;9.220;2022-08-01T07:38:57;5.93;;;2.00;;
1715;SDS011;855;48.824;9.220;2022-08-01T07:41:24;8.53;;;1.80;;
1715;SDS011;855;48.824;9.220;2022-08-01T07:43:51;2.07;;;1.40;;
1715;SDS011;855;48.824;9.220;2022-08-01T07:46:18;1.90;;;1.60;;
1715;SDS011;855;48.824;9.220;2022-08-01T07:48:45;2.90;;;1.17;;
1715;SDS011;855;48.824;9.220;2022-08-01T07:51:11;2.20;;;1.40;;
1715;SDS011;855;48.824;9.220;2022-08-01T07:53:40;6.90;;;1.20;;
1715;SDS011;855;48.824;9.220;2022-08-01T07:56:06;2.17;;;1.23;;
1715;SDS011;855;48.824;9.220;2022-08-01T07:58:34;1.63;;;1.43;;
1715;SDS011;855;48.824;9.220;2022-08-01T08:01:01;1.97;;;1.50;;
1715;SDS011;855;48.824;9.220;2022-08-01T08:03:28;3.57;;;1.40;;
1715;SDS011;855;48.824;9.220;2022-08-01T08:05:55;3.17;;;1.80;;
1715;SDS011;855;48.824;9.220;2022-08-01T08:08:22;2.57;;;2.03;;
1715;SDS011;855;48.824;9.220;2022-08-01T08:10:50;2.13;;;1.80;;
1715;SDS011;855;48.824;9.220;2022-08-01T08:13:17;2.80;;;1.87;;
1715;SDS011;855;48.824;9.220;2022-08-01T08:15:44;5.00;;;2.50;;
1715;SDS011;855;48.824;9.220;2022-08-01T08:18:10;1.47;;;1.43;;
1715;SDS011;855;48.824;9.220;2022-08-01T08:20:38;10.27;;;2.10;;
1715;SDS011;855;48.824;9.220;2022-08-01T08:23:04;2.70;;;1.60;;
1715;SDS011;855;48.824;9.220;2022-08-01T08:25:53;4.13;;;1.90;;
1715;SDS011;855;48.824;9.220;2022-08-01T08:28:19;1.80;;;1.67;;
1715;SDS011;855;48.824;9.220;2022-08-01T08:30:46;3.20;;;1.97;;
1715;SDS011;855;48.824;9.220;2022-08-01T08:33:13;1.67;;;1.60;;
1715;SDS011;855;48.824;9.220;2022-08-01T08:35:40;3.67;;;1.83;;
1715;SDS011;855;48.824;9.220;2022-08-01T08:38:07;3.60;;;2.30;;
1715;SDS011;855;48.824;9.220;2022-08-01T08:40:35;2.90;;;1.40;;
1715;SDS011;855;48.824;9.220;2022-08-01T08:43:04;3.03;;;1.93;;
1715;SDS011;855;48.824;9.220;2022-08-01T08:45:32;2.90;;;1.77;;
1715;SDS011;855;48.824;9.220;2022-08-01T08:47:59;4.10;;;2.37;;
1715;SDS011;855;48.824;9.220;2022-08-01T08:50:26;3.73;;;1.77;;
1715;SDS011;855;48.824;9.220;2022-08-01T08:52:54;3.00;;;2.03;;
1715;SDS011;855;48.824;9.220;2022-08-01T08:55:21;2.80;;;1.40;;
1715;SDS011;855;48.824;9.220;2022-08-01T08:57:49;4.40;;;2.00;;
1715;SDS011;855;48.824;9.220;2022-08-01T09:00:19;5.40;;;2.20;;
1715;SDS011;855;48.824;9.220;2022-08-01T09:02:46;3.80;;;2.27;;
1715;SDS011;855;48.824;9.220;2022-08-01T09:05:15;4.83;;;1.93;;
1715;SDS011;855;48.824;9.220;2022-08-01T09:07:43;3.83;;;2.27;;
1715;SDS011;855;48.824;9.220;2022-08-01T09:10:10;4.40;;;2.00;;
1715;SDS011;855;48.824;9.220;2022-08-01T09:12:37;5.33;;;2.00;;
1715;SDS011;855;48.824;9.220;2022-08-01T09:15:04;3.80;;;2.30;;
1715;SDS011;855;48.824;9.220;2022-08-01T09:17:40;4.50;;;2.50;;
1715;SDS011;855;48.824;9.220;2022-08-01T09:20:07;3.33;;;2.47;;
1715;SDS011;855;48.824;9.220;2022-08-01T09:22:49;10.10;;;2.80;;
1715;SDS011;855;48.824;9.220;2022-08-01T09:25:15;5.00;;;3.40;;
1715;SDS011;855;48.824;9.220;2022-08-01T09:27:42;9.00;;;2.40;;
1715;SDS011;855;48.824;9.220;2022-08-01T09:30:10;2.90;;;2.30;;
1715;SDS011;855;48.824;9.220;2022-08-01T09:32:56;2.97;;;2.17;;
1715;SDS011;855;48.824;9.220;2022-08-01T09:35:26;4.53;;;2.47;;
1715;SDS011;855;48.824;9.220;2022-08-01T09:37:59;6.83;;;2.50;;
1715;SDS011;855;48.824;9.220;2022-08-01T09:40:49;4.17;;;2.30;;
1715;SDS011;855;48.824;9.220;2022-08-01T09:43:18;3.33;;;2.40;;
1715;SDS011;855;48.824;9.220;2022-08-01T09:45:45;4.63;;;2.67;;
1715;SDS011;855;48.824;9.220;2022-08-01T09:48:14;3.70;;;2.90;;
1715;SDS011;855;48.824;9.220;2022-08-01T09:50:42;7.93;;;3.10;;
1715;SDS011;855;48.824;9.220;2022-08-01T09:53:09;6.57;;;3.73;;
1715;SDS011;855;48.824;9.220;2022-08-01T09:55:37;8.07;;;3.60;;
1715;SDS011;855;48.824;9.220;2022-08-01T09:58:04;3.70;;;3.50;;
1715;SDS011;855;48.824;9.220;2022-08-01T10:00:31;4.60;;;3.60;;
1715;SDS011;855;48.824;9.220;2022-08-01T10:03:00;5.90;;;3.53;;
1715;SDS011;855;48.824;9.220;2022-08-01T10:05:47;8.63;;;3.43;;
1715;SDS011;855;48.824;9.220;2022-08-01T10:08:14;8.63;;;4.00;;
1715;SDS011;855;48.824;9.220;2022-08-01T10:10:41;6.87;;;4.23;;
1715;SDS011;855;48.824;9.220;2022-08-01T10:13:29;7.97;;;3.83;;
1715;SDS011;855;48.824;9.220;2022-08-01T10:15:56;5.43;;;3.30;;
1715;SDS011;855;48.824;9.220;2022-08-01T10:18:24;6.90;;;3.70;;
1715;SDS011;855;48.824;9.220;2022-08-01T10:20:52;6.37;;;3.90;;
1715;SDS011;855;48.824;9.220;2022-08-01T10:23:24;7.27;;;3.60;;
1715;SDS011;855;48.824;9.220;2022-08-01T10:25:53;5.43;;;3.50;;
1715;SDS011;855;48.824;9.220;2022-08-01T10:28:21;7.40;;;2.63;;
1715;SDS011;855;48.824;9.220;2022-08-01T10:30:51;5.90;;;2.83;;
1715;SDS011;855;48.824;9.220;2022-08-01T10:33:18;6.47;;;2.73;;
1715;SDS011;855;48.824;9.220;2022-08-01T10:35:49;5.13;;;2.73;;
1715;SDS011;855;48.824;9.220;2022-08-01T10:38:16;4.40;;;2.73;;
1715;SDS011;855;48.824;9.220;2022-08-01T10:40:43;2.83;;;1.97;;
1715;SDS011;855;48.824;9.220;2022-08-01T10:43:11;3.50;;;2.70;;
1715;SDS011;855;48.824;9.220;2022-08-01T10:45:39;3.80;;;2.73;;
1715;SDS011;855;48.824;9.220;2022-08-01T10:48:09;3.77;;;2.83;;
1715;SDS011;855;48.824;9.220;2022-08-01T10:50:41;4.80;;;3.40;;
1715;SDS011;855;48.824;9.220;2022-08-01T10:53:12;3.80;;;3.13;;
1715;SDS011;855;48.824;9.220;2022-08-01T10:55:47;3.00;;;2.73;;
1715;SDS011;855;48.824;9.220;2022-08-01T10:58:19;4.70;;;2.50;;
1715;SDS011;855;48.824;9.220;2022-08-01T11:03:59;4.50;;;2.77;;
1715;SDS011;855;48.824;9.220;2022-08-01T11:06:36;5.90;;;3.27;;
1715;SDS011;855;48.824;9.220;2022-08-01T11:09:18;4.17;;;3.20;;
1715;SDS011;855;48.824;9.220;2022-08-01T11:11:59;6.10;;;3.23;;
1715;SDS011;855;48.824;9.220;2022-08-01T11:14:30;5.37;;;3.30;;
1715;SDS011;855;48.824;9.220;2022-08-01T11:20:05;3.83;;;2.83;;
1715;SDS011;855;48.824;9.220;2022-08-01T11:26:08;4.97;;;2.80;;
1715;SDS011;855;48.824;9.220;2022-08-01T11:28:36;3.50;;;2.57;;
1715;SDS011;855;48.824;9.220;2022-08-01T11:33:51;4.93;;;2.43;;
1715;SDS011;855;48.824;9.220;2022-08-01T11:36:18;4.23;;;2.67;;
1715;SDS011;855;48.824;9.220;2022-08-01T11:38:47;2.80;;;2.17;;
1715;SDS011;855;48.824;9.220;2022-08-01T11:41:17;3.30;;;2.07;;
1715;SDS011;855;48.824;9.220;2022-08-01T11:43:54;7.47;;;3.33;;
1715;SDS011;855;48.824;9.220;2022-08-01T11:49:25;3.87;;;2.73;;
1715;SDS011;855;48.824;9.220;2022-08-01T11:52:15;3.90;;;2.93;;
1715;SDS011;855;48.824;9.220;2022-08-01T11:54:45;3.07;;;2.13;;
1715;SDS011;855;48.824;9.220;2022-08-01T11:57:17;3.73;;;2.50;;
1715;SDS011;855;48.824;9.220;2022-08-01T11:59:45;4.53;;;2.87;;
1715;SDS011;855;48.824;9.220;2022-08-01T12:02:15;10.10;;;2.90;;
1715;SDS011;855;48.824;9.220;2022-08-01T12:04:47;6.90;;;3.13;;
1715;SDS011;855;48.824;9.220;2022-08-01T12:07:16;5.00;;;2.23;;
1715;SDS011;855;48.824;9.220;2022-08-01T12:09:43;4.67;;;2.50;;
1715;SDS011;855;48.824;9.220;2022-08-01T12:12:12;4.20;;;2.53;;
1715;SDS011;855;48.824;9.220;2022-08-01T12:14:44;5.30;;;3.20;;
1715;SDS011;855;48.824;9.220;2022-08-01T12:17:20;5.83;;;2.73;;
1715;SDS011;855;48.824;9.220;2022-08-01T12:19:54;6.60;;;2.60;;
1715;SDS011;855;48.824;9.220;2022-08-01T12:22:23;3.13;;;2.60;;
1715;SDS011;855;48.824;9.220;2022-08-01T12:24:51;2.77;;;2.13;;
1715;SDS011;855;48.824;9.220;2022-08-01T12:27:27;6.70;;;2.93;;
1715;SDS011;855;48.824;9.220;2022-08-01T12:29:57;4.57;;;2.30;;
1715;SDS011;855;48.824;9.220;2022-08-01T12:32:26;10.27;;;2.27;;
1715;SDS011;855;48.824;9.220;2022-08-01T12:34:56;2.13;;;1.97;;
1715;SDS011;855;48.824;9.220;2022-08-01T12:37:27;4.93;;;2.37;;
1715;SDS011;855;48.824;9.220;2022-08-01T12:39:55;3.00;;;2.50;;
1715;SDS011;855;48.824;9.220;2022-08-01T12:42:22;3.07;;;2.37;;
1715;SDS011;855;48.824;9.220;2022-08-01T12:44:54;3.03;;;2.10;;
1715;SDS011;855;48.824;9.220;2022-08-01T12:47:21;3.30;;;2.20;;
1715;SDS011;855;48.824;9.220;2022-08-01T12:49:52;3.60;;;2.70;;
1715;SDS011;855;48.824;9.220;2022-08-01T12:52:19;9.43;;;3.23;;
1715;SDS011;855;48.824;9.220;2022-08-01T12:55:03;2.93;;;2.07;;
1715;SDS011;855;48.824;9.220;2022-08-01T12:57:33;3.80;;;2.53;;
1715;SDS011;855;48.824;9.220;2022-08-01T13:00:21;4.53;;;2.20;;
1715;SDS011;855;48.824;9.220;2022-08-01T13:02:50;2.80;;;2.20;;
1715;SDS011;855;48.824;9.220;2022-08-01T13:05:27;3.13;;;2.10;;
1715;SDS011;855;48.824;9.220;2022-08-01T13:08:08;4.37;;;2.40;;
1715;SDS011;855;48.824;9.220;2022-08-01T13:10:36;4.27;;;2.27;;
1715;SDS011;855;48.824;9.220;2022-08-01T13:13:03;10.03;;;2.83;;
1715;SDS011;855;48.824;9.220;2022-08-01T13:15:33;3.53;;;2.17;;
1715;SDS011;855;48.824;9.220;2022-08-01T13:18:02;7.10;;;2.63;;
1715;SDS011;855;48.824;9.220;2022-08-01T13:20:49;4.27;;;2.27;;
1715;SDS011;855;48.824;9.220;2022-08-01T13:23:16;5.00;;;2.30;;
1715;SDS011;855;48.824;9.220;2022-08-01T13:25:47;3.17;;;2.40;;
1715;SDS011;855;48.824;9.220;2022-08-01T13:28:17;4.87;;;2.53;;
1715;SDS011;855;48.824;9.220;2022-08-01T13:30:56;10.73;;;2.33;;
1715;SDS011;855;48.824;9.220;2022-08-01T13:33:25;4.73;;;2.17;;
1715;SDS011;855;48.824;9.220;2022-08-01T13:35:55;2.20;;;1.80;;
1715;SDS011;855;48.824;9.220;2022-08-01T13:38:22;4.20;;;2.47;;
1715;SDS011;855;48.824;9.220;2022-08-01T13:41:03;5.40;;;2.30;;
1715;SDS011;855;48.824;9.220;2022-08-01T13:43:30;4.93;;;2.30;;
1715;SDS011;855;48.824;9.220;2022-08-01T13:45:58;3.97;;;2.20;;
1715;SDS011;855;48.824;9.220;2022-08-01T13:48:27;2.87;;;2.13;;
1715;SDS011;855;48.824;9.220;2022-08-01T13:50:54;8.20;;;2.33;;
1715;SDS011;855;48.824;9.220;2022-08-01T13:53:22;2.87;;;1.53;;
1715;SDS011;855;48.824;9.220;2022-08-01T13:55:48;3.57;;;2.13;;
1715;SDS011;855;48.824;9.220;2022-08-01T13:58:15;2.60;;;1.93;;
1715;SDS011;855;48.824;9.220;2022-08-01T14:00:43;3.50;;;1.63;;
1715;SDS011;855;48.824;9.220;2022-08-01T14:03:12;2.37;;;2.10;;
1715;SDS011;855;48.824;9.220;2022-08-01T14:05:39;3.83;;;2.20;;
1715;SDS011;855;48.824;9.220;2022-08-01T14:08:06;4.30;;;2.23;;
1715;SDS011;855;48.824;9.220;2022-08-01T14:10:33;2.80;;;2.07;;
1715;SDS011;855;48.824;9.220;2022-08-01T14:13:01;4.03;;;2.60;;
1715;SDS011;855;48.824;9.220;2022-08-01T14:15:28;3.00;;;2.20;;
1715;SDS011;855;48.824;9.220;2022-08-01T14:17:56;6.90;;;2.20;;
1715;SDS011;855;48.824;9.220;2022-08-01T14:20:25;9.90;;;1.97;;
1715;SDS011;855;48.824;9.220;2022-08-01T14:22:52;4.10;;;2.57;;
1715;SDS011;855;48.824;9.220;2022-08-01T14:25:19;2.83;;;1.90;;
1715;SDS011;855;48.824;9.220;2022-08-01T14:27:46;4.50;;;2.10;;
1715;SDS011;855;48.824;9.220;2022-08-01T14:30:13;7.70;;;2.20;;
1715;SDS011;855;48.824;9.220;2022-08-01T14:32:40;4.73;;;2.13;;
1715;SDS011;855;48.824;9.220;2022-08-01T14:35:07;2.93;;;2.33;;
1715;SDS011;855;48.824;9.220;2022-08-01T14:37:36;5.40;;;2.63;;
1715;SDS011;855;48.824;9.220;2022-08-01T14:40:03;8.07;;;2.50;;
1715;SDS011;855;48.824;9.220;2022-08-01T14:42:34;2.20;;;1.70;;
1715;SDS011;855;48.824;9.220;2022-08-01T14:45:02;9.63;;;2.33;;
1715;SDS011;855;48.824;9.220;2022-08-01T14:47:33;4.20;;;2.10;;
1715;SDS011;855;48.824;9.220;2022-08-01T14:50:01;7.37;;;2.20;;
1715;SDS011;855;48.824;9.220;2022-08-01T14:52:28;2.60;;;2.40;;
1715;SDS011;855;48.824;9.220;2022-08-01T14:54:56;6.60;;;2.50;;
1715;SDS011;855;48.824;9.220;2022-08-01T14:57:23;3.20;;;1.83;;
1715;SDS011;855;48.824;9.220;2022-08-01T14:59:50;2.63;;;2.10;;
1715;SDS011;855;48.824;9.220;2022-08-01T15:02:17;3.10;;;2.03;;
1715;SDS011;855;48.824;9.220;2022-08-01T15:04:45;2.00;;;1.87;;
1715;SDS011;855;48.824;9.220;2022-08-01T15:07:15;2.77;;;1.80;;
1715;SDS011;855;48.824;9.220;2022-08-01T15:09:42;3.77;;;1.70;;
1715;SDS011;855;48.824;9.220;2022-08-01T15:12:11;3.03;;;1.63;;
1715;SDS011;855;48.824;9.220;2022-08-01T15:14:38;9.00;;;2.27;;
1715;SDS011;855;48.824;9.220;2022-08-01T15:17:16;3.37;;;1.93;;
1715;SDS011;855;48.824;9.220;2022-08-01T15:19:46;4.97;;;2.63;;
1715;SDS011;855;48.824;9.220;2022-08-01T15:22:14;2.87;;;1.70;;
1715;SDS011;855;48.824;9.220;2022-08-01T15:24:41;2.60;;;1.70;;
1715;SDS011;855;48.824;9.220;2022-08-01T15:27:09;4.80;;;2.13;;
1715;SDS011;855;48.824;9.220;2022-08-01T15:29:38;3.80;;;2.30;;
1715;SDS011;855;48.824;9.220;2022-08-01T15:32:05;5.30;;;2.07;;
1715;SDS011;855;48.824;9.220;2022-08-01T15:34:32;7.30;;;1.90;;
1715;SDS011;855;48.824;9.220;2022-08-01T15:37:00;3.10;;;2.10;;
1715;SDS011;855;48.824;9.220;2022-08-01T15:39:28;4.13;;;1.97;;
1715;SDS011;855;48.824;9.220;2022-08-01T15:41:57;3.17;;;2.17;;
1715;SDS011;855;48.824;9.220;2022-08-01T15:44:27;4.83;;;1.87;;
1715;SDS011;855;48.824;9.220;2022-08-01T15:46:54;2.63;;;2.00;;
1715;SDS011;855;48.824;9.220;2022-08-01T15:49:21;3.03;;;1.80;;
1715;SDS011;855;48.824;9.220;2022-08-01T15:51:49;3.17;;;1.80;;
1715;SDS011;855;48.824;9.220;2022-08-01T15:54:16;2.73;;;1.80;;
1715;SDS011;855;48.824;9.220;2022-08-01T15:56:43;3.83;;;1.83;;
1715;SDS011;855;48.824;9.220;2022-08-01T15:59:11;6.20;;;1.80;;
1715;SDS011;855;48.824;9.220;2022-08-01T16:01:40;3.20;;;1.90;;